Yevpatoriya, Ukraine
Current Conditions -  °F | °C
As of 12:30 PM on Friday 28 Nov 2014 (Local Time) from URFF Reporting Station
Broken Clouds Broken Clouds  
Wind Chill: 36°   Ceiling: 4800
Heat Index: 36°   Visibility: 6mi
Dew Point: 23°   Wind: 0mph
Humidity: 60%   Direction: NA
Pressure: 30.3"   Gusts: NA
Location:  45.2°N, 33.36°E
Report Text: URFF 280930Z 00000MPS 9999 BKN048 02/M05 Q1026 01290355 NOSIG
Loading
Personal Weather Stations






























Interactive Weather Map New forecast layout! Learn more

10-Day Weather Forecast

Advertisements
Track Severe Weather on mobile